• Join FlightAware (Why Join?)
  • Login
  • US Flag 
12:41PM EST


 

Airport Tracker/Info


-or-


 

Live Flight TrackerFlight Track Log ✈ AAY843 ✈ 28-Mar-2014 ✈ KSYR - KPIE

Flight Track Log - Related Links

Times and Time Zones

All times are in EDT time to prevent confusion due to time zone crossing. See the AAY843 flight status page for this flight to view local times or setup timezone preferences in your user account.

Time Position Orientation Groundspeed Altitude Reporting Facility
EDT Latitude Longitude Course Direction KTS MPH feet Rate Location/Type
07:34PM 43.1075 -76.1333 243° Southwest 136 157 1,700  Level Boston Center
07:35PM 43.0919 -76.1750 249° West 171 197 3,200 1,740 Climbing Boston Center
07:36PM 43.0644 -76.2019 216° Southwest 183 211 4,300 2,760 Climbing Boston Center
07:36PM 43.0314 -76.2289 211° Southwest 245 282 6,300 3,000 Climbing Boston Center
07:37PM 43.0086 -76.2483 212° Southwest 225 259 7,400 2,460 Climbing Boston Center
07:38PM 42.9519 -76.2958 212° Southwest 236 272 10,000 1,380 Climbing Boston Center
07:39PM 42.8892 -76.3517 213° Southwest 262 302 10,300 1,440 Climbing Boston Center
07:40PM 42.8206 -76.4092 212° Southwest 284 327 13,000 2,640 Climbing Boston Center
07:41PM 42.7528 -76.4700 213° Southwest 288 331 15,700 1,860 Climbing Boston Center
07:42PM 42.6783 -76.5328 212° Southwest 312 359 16,900 660 Climbing Boston Center
07:43PM 42.5992 -76.5994 212° Southwest 331 381 17,100 60 Climbing Boston Center
07:44PM 42.5028 -76.6825 212° Southwest 340 391 17,100 840 Level Boston Center
07:45PM 42.4019 -76.7111 192° South 376 433 18,900 1,800 Climbing Boston Center
07:46PM 42.2956 -76.7292 187° South 382 440 20,800 1,860 Climbing Boston Center
07:47PM 42.1872 -76.7517 189° South 395 455 22,600 2,040 Climbing New York Center
07:48PM 42.0803 -76.7672 186° South 395 455 24,800 1,800 Climbing New York Center
07:49PM 41.9708 -76.7881 188° South 395 455 26,200 1,440 Climbing New York Center
07:50PM 41.8597 -76.8058 187° South 395 455 27,700 1,440 Climbing New York Center
07:51PM 41.7481 -76.8289 189° South 400 460 29,100 1,260 Climbing New York Center
07:52PM 41.6347 -76.8464 187° South 411 473 30,300 1,320 Climbing New York Center
07:53PM 41.5192 -76.8664 187° South 411 473 31,800 1,680 Climbing New York Center
07:54PM 41.4222 -76.8853 188° South 411 473 33,700 1,500 Climbing New York Center
07:55PM 41.3244 -76.9233 196° South 392 451 34,900 1,140 Climbing New York Center
07:56PM 41.2308 -76.9619 197° South 371 427 36,000 540 Climbing New York Center
07:57PM 41.1350 -77.0000 197° South 360 414 36,000  Level New York Center
07:58PM 41.0394 -77.0353 196° South 360 414 36,000  Level New York Center
07:59PM 40.9436 -77.0731 197° South 360 414 36,000  Level New York Center
08:00PM 40.8478 -77.1108 197° South 360 414 36,000  Level New York Center
08:01PM 40.7522 -77.1458 196° South 365 420 36,000  Level New York Center
08:02PM 40.6564 -77.1836 197° South 365 420 36,000 60 Level New York Center
08:04PM 40.4606 -77.2553 196° South 370 426 36,300 540 Climbing New York Center
08:05PM 40.3033 -77.3186 197° South 348 400 38,000 600 Climbing Washington Center
08:06PM 40.2092 -77.3517 195° South 348 400 38,000  Level Washington Center
08:07PM 40.1150 -77.3872 196° South 348 400 38,000  Level Washington Center
08:08PM 40.0228 -77.4203 195° South 348 400 38,000  Level Washington Center
08:09PM 39.9264 -77.4583 197° South 348 400 38,000  Level Washington Center
08:10PM 39.8319 -77.4936 196° South 353 406 38,000  Level Washington Center
08:11PM 39.7378 -77.5289 196° South 353 406 38,000  Level Washington Center
08:12PM 39.6414 -77.5642 196° South 364 419 38,000  Level Washington Center
08:13PM 39.5447 -77.6019 197° South 364 419 38,000  Level Washington Center
08:14PM 39.4483 -77.6342 194° South 364 419 38,000  Level Washington Center
08:15PM 39.3519 -77.6717 197° South 364 419 38,000  Level Washington Center
08:16PM 39.2533 -77.7092 196° South 364 419 38,000  Level Washington Center
08:17PM 39.1569 -77.7436 195° South 364 419 38,000  Level Washington Center
08:18PM 39.0542 -77.7781 195° South 364 419 38,100  Climbing Washington Center
08:19PM 38.9681 -77.8128 197° South 364 419 38,000 -60 Descending Washington Center
08:20PM 38.8589 -77.8497 195° South 364 419 38,000  Level Washington Center
08:21PM 38.7686 -77.8842 197° South 369 425 38,000  Level Washington Center
08:22PM 38.6719 -77.9211 197° South 369 425 38,000  Level Washington Center
08:23PM 38.5733 -77.9550 195° South 364 419 38,000  Level Washington Center
08:24PM 38.4767 -77.9892 195° South 364 419 38,000  Level Washington Center
08:25PM 38.3781 -78.0231 195° South 364 419 38,000  Level Washington Center
08:26PM 38.2814 -78.0597 197° South 364 419 38,000  Level Washington Center
08:27PM 38.1828 -78.0933 195° South 364 419 38,000  Level Washington Center
08:28PM 38.0839 -78.1297 196° South 364 419 38,000  Level Washington Center
08:29PM 37.9767 -78.1656 195° South 364 419 38,000  Level Washington Center
08:30PM 37.8864 -78.1939 194° South 364 419 38,000  Level Washington Center
08:31PM 37.7836 -78.2219 192° South 369 425 38,000  Level Washington Center
08:32PM 37.6828 -78.2525 193° South 375 432 38,000  Level Washington Center
08:33PM 37.5694 -78.2906 195° South 381 438 38,000  Level Washington Center
08:34PM 37.4686 -78.3183 192° South 381 438 38,000  Level Washington Center
08:35PM 37.3658 -78.3486 193° South 376 433 38,000  Level Washington Center
08:36PM 37.2686 -78.3972 202° Southwest 376 433 38,000  Level Washington Center
08:37PM 37.1736 -78.4461 202° Southwest 376 433 38,000  Level Washington Center
08:38PM 37.0869 -78.4869 201° Southwest 376 433 38,000  Level Washington Center
08:39PM 36.9900 -78.5356 202° Southwest 376 433 38,000  Level Washington Center
08:40PM 36.8947 -78.5864 203° Southwest 376 433 38,000  Level Washington Center
08:41PM 36.7975 -78.6344 202° Southwest 381 438 38,000  Level Washington Center
08:42PM 36.6919 -78.6847 201° Southwest 381 438 38,000  Level Washington Center
08:43PM 36.6008 -78.7381 205° Southwest 376 433 38,000  Level Washington Center
08:44PM 36.5058 -78.7858 202° Southwest 376 433 38,000  Level Washington Center
08:45PM 36.4086 -78.8308 200° South 376 433 38,000  Level Washington Center
08:46PM 36.3303 -78.8689 201° Southwest 376 433 38,000  Level Washington Center
08:47PM 36.2142 -78.9233 201° Southwest 376 433 38,000  Level Washington Center
08:48PM 36.1189 -78.9708 202° Southwest 376 433 38,000  Level Washington Center
08:49PM 36.0236 -79.0206 203° Southwest 376 433 38,000  Level Washington Center
08:50PM 35.9261 -79.0650 200° South 376 433 38,000  Level Washington Center
08:51PM 35.8289 -79.1147 203° Southwest 381 438 38,000  Level Washington Center
08:52PM 35.7336 -79.1617 202° Southwest 381 438 38,000  Level Washington Center
08:53PM 35.6361 -79.2083 201° Southwest 381 438 38,000  Level Washington Center
08:54PM 35.5431 -79.2525 201° Southwest 376 433 38,000  Level Washington Center
08:55PM 35.4583 -79.2947 202° Southwest 370 426 38,000  Level Washington Center
08:56PM 35.3503 -79.3456 201° Southwest 370 426 38,000  Level Washington Center
08:57PM 35.2614 -79.3872 201° Southwest 379 436 38,000  Level Washington Center
08:58PM 35.1639 -79.4308 200° South 379 436 38,000  Level Washington Center
09:01PM 34.9206 -79.5481 202° Southwest 381 438 38,000  Level Jacksonville Center
09:02PM 34.8258 -79.5922 201° Southwest 376 433 38,000  Level Jacksonville Center
09:03PM 34.7292 -79.6417 203° Southwest 376 433 38,000  Level Jacksonville Center
09:04PM 34.6431 -79.7028 210° Southwest 365 420 38,000  Level Jacksonville Center
09:05PM 34.5569 -79.7664 211° Southwest 360 414 38,000  Level Jacksonville Center
09:06PM 34.4856 -79.8219 213° Southwest 358 412 38,000  Level Jacksonville Center
09:07PM 34.3992 -79.8803 209° Southwest 358 412 38,000 -60 Level Jacksonville Center
09:08PM 34.3172 -79.9436 213° Southwest 358 412 37,900  Descending Jacksonville Center
09:09PM 34.2292 -80.0094 212° Southwest 358 412 38,000  Climbing Jacksonville Center
09:10PM 34.1428 -80.0700 210° Southwest 363 418 38,000  Level Jacksonville Center
09:11PM 34.0544 -80.1331 211° Southwest 363 418 38,000  Level Jacksonville Center
09:12PM 33.9683 -80.1933 210° Southwest 368 423 38,000  Level Jacksonville Center
09:13PM 33.8797 -80.2561 210° Southwest 368 423 38,000  Level Jacksonville Center
09:14PM 33.7914 -80.3186 210° Southwest 368 423 38,000  Level Jacksonville Center
09:15PM 33.7050 -80.3811 211° Southwest 373 429 38,000  Level Jacksonville Center
09:16PM 33.6164 -80.4433 210° Southwest 373 429 38,000  Level Jacksonville Center
09:17PM 33.5300 -80.5081 212° Southwest 373 429 38,000  Level Jacksonville Center
09:18PM 33.4414 -80.5703 210° Southwest 373 429 38,000  Level Jacksonville Center
09:19PM 33.3528 -80.6322 210° Southwest 373 429 38,000  Level Jacksonville Center
09:20PM 33.2642 -80.6967 211° Southwest 373 429 38,000  Level Jacksonville Center
09:21PM 33.1733 -80.7558 209° Southwest 373 429 38,000  Level Jacksonville Center
09:22PM 33.0722 -80.8253 210° Southwest 373 429 38,000  Level Jacksonville Center
09:23PM 32.9836 -80.8867 210° Southwest 373 429 38,000  Level Jacksonville Center
09:24PM 32.8947 -80.9506 211° Southwest 373 429 38,000  Level Jacksonville Center
09:25PM 32.8061 -81.0117 210° Southwest 373 429 38,000  Level Jacksonville Center
09:26PM 32.7150 -81.0728 209° Southwest 373 429 38,000  Level Jacksonville Center
09:27PM 32.6261 -81.1339 210° Southwest 373 429 38,000  Level Jacksonville Center
09:28PM 32.5475 -81.1897 211° Southwest 373 429 38,000  Level Jacksonville Center
09:29PM 32.4586 -81.2528 211° Southwest 373 429 38,000  Level Jacksonville Center
09:30PM 32.3531 -81.3186 208° Southwest 379 436 38,000  Level Jacksonville Center
09:31PM 32.2683 -81.3839 213° Southwest 369 425 38,000  Level Jacksonville Center
09:32PM 32.1833 -81.4394 209° Southwest 382 440 38,000  Level Jacksonville Center
09:33PM 32.0817 -81.5072 209° Southwest 375 432 38,000  Level Jacksonville Center
09:34PM 31.9989 -81.5622 209° Southwest 375 432 38,000  Level Jacksonville Center
09:35PM 31.8928 -81.6203 205° Southwest 375 432 38,000  Level Jacksonville Center
09:36PM 31.7867 -81.6533 195° South 398 458 38,000  Level Jacksonville Center
09:37PM 31.6911 -81.6839 195° South 398 458 38,000  Level Jacksonville Center
09:38PM 31.5744 -81.7244 196° South 398 458 38,000  Level Jacksonville Center
09:39PM 31.4786 -81.7550 195° South 398 458 38,000  Level Jacksonville Center
09:40PM 31.3600 -81.7928 195° South 398 458 38,000  Level Jacksonville Center
09:41PM 31.2517 -81.8306 197° South 398 458 38,000  Level Jacksonville Center
09:42PM 31.1436 -81.8658 196° South 398 458 38,000  Level Jacksonville Center
09:43PM 31.0353 -81.9008 195° South 398 458 38,000  Level Jacksonville Center
09:44PM 30.9269 -81.9336 195° South 398 458 38,000  Level Jacksonville Center
09:45PM 30.8186 -81.9686 196° South 398 458 38,000  Level Jacksonville Center
09:46PM 30.7081 -82.0058 196° South 403 464 38,000  Level Jacksonville Center
09:47PM 30.6103 -82.0381 196° South 403 464 38,000  Level Jacksonville Center
09:48PM 30.4936 -82.0681 192° South 398 458 38,000 -60 Level Jacksonville Center
09:49PM 30.3853 -82.1028 195° South 398 458 37,900  Descending Jacksonville Center
09:50PM 30.2767 -82.1372 195° South 403 464 38,000 -420 Climbing Jacksonville Center
09:51PM 30.1706 -82.1717 196° South 396 456 37,100 -960 Descending Jacksonville Center
09:52PM 30.0642 -82.2061 196° South 395 455 36,100 -1,140 Descending Jacksonville Center
09:53PM 29.9642 -82.2406 197° South 400 460 34,900 -1,740 Descending Jacksonville Center
09:54PM 29.8578 -82.2747 196° South 400 460 32,700 -2,400 Descending Jacksonville Center
09:55PM 29.7369 -82.3067 193° South 400 460 30,100 -2,400 Descending Jacksonville Center
09:56PM 29.6306 -82.3431 197° South 400 460 28,000 -2,100 Descending Jacksonville Center
09:57PM 29.5200 -82.3483 182° South 395 455 26,000 -2,100 Descending Jacksonville Center
09:58PM 29.4031 -82.3372 175° South 401 461 23,800 -2,220 Descending Jacksonville Center
09:59PM 29.2883 -82.3236 174° South 416 479 21,600 -1,980 Descending Jacksonville Center
10:00PM 29.1881 -82.3097 173° South 416 479 19,900 -1,800 Descending Jacksonville Center
10:01PM 29.0814 -82.2986 175° South 405 466 18,100 -1,740 Descending Jacksonville Center
10:02PM 28.9811 -82.2850 173° South 392 451 16,500 -1,500 Descending Jacksonville Center
10:03PM 28.8914 -82.2758 175° South 358 412 15,100 -1,320 Descending Jacksonville Center
10:04PM 28.7333 -82.2500 172° South 302 348 13,000 -1,020 Descending Tampa TRACON
10:05PM 28.6500 -82.2500 180° South 290 334 12,400 -840 Descending Tampa TRACON
10:06PM 28.6000 -82.3000 221° Southwest 248 285 11,500 -1,020 Descending Tampa TRACON
10:08PM 28.5167 -82.3833 221° Southwest 261 300 10,000 -720 Descending Tampa TRACON
10:08PM 28.5000 -82.4167 240° Southwest 268 308 10,000  Level Tampa TRACON
10:09PM 28.4333 -82.4833 221° Southwest 270 311 10,000 -900 Level Tampa TRACON
10:10PM 28.3833 -82.5333 221° Southwest 264 304 8,200 -1,680 Descending Tampa TRACON
10:11PM 28.3333 -82.6000 230° Southwest 259 298 6,700 -1,200 Descending Tampa TRACON
10:12PM 28.2667 -82.6333 204° Southwest 259 298 5,900 -1,320 Descending Tampa TRACON
10:14PM 28.1833 -82.6667 199° South 254 292 3,700 -1,320 Descending Tampa TRACON
10:15PM 28.1333 -82.7000 210° Southwest 236 272 3,000 -420 Descending Tampa TRACON
10:16PM 28.0833 -82.7167 196° South 177 204 3,000 -480 Level Tampa TRACON
10:17PM 28.0333 -82.7167 180° South 155 178 2,100 -780 Descending Tampa TRACON
10:18PM 28.0000 -82.7000 156° South 126 145 1,400 -720 Descending Tampa TRACON
10:19PM 27.9500 -82.7000 180° South 130 150 700 -720 Descending Tampa TRACON